地図

経路データ

SID SEASON NUMBER BASIN SUBBASIN NAME ISO_TIME NATURE LAT LON WMO_WIND WMO_PRES WMO_AGENCY TRACK_TYPE DIST2LAND LANDFALL IFLAG USA_AGENCY USA_ATCF_ID USA_LAT USA_LON USA_RECORD USA_STATUS USA_WIND USA_PRES USA_SSHS USA_R34_NE USA_R34_SE USA_R34_SW USA_R34_NW USA_R50_NE USA_R50_SE USA_R50_SW USA_R50_NW USA_R64_NE USA_R64_SE USA_R64_SW USA_R64_NW USA_POCI USA_ROCI USA_RMW USA_EYE TOKYO_LAT TOKYO_LON TOKYO_GRADE TOKYO_WIND TOKYO_PRES TOKYO_R50_DIR TOKYO_R50_LONG TOKYO_R50_SHORT TOKYO_R30_DIR TOKYO_R30_LONG TOKYO_R30_SHORT TOKYO_LAND CMA_LAT CMA_LON CMA_CAT CMA_WIND CMA_PRES HKO_LAT HKO_LON HKO_CAT HKO_WIND HKO_PRES NEWDELHI_LAT NEWDELHI_LON NEWDELHI_GRADE NEWDELHI_WIND NEWDELHI_PRES NEWDELHI_CI NEWDELHI_DP NEWDELHI_POCI REUNION_LAT REUNION_LON REUNION_TYPE REUNION_WIND REUNION_PRES REUNION_TNUM REUNION_CI REUNION_RMW REUNION_R34_NE REUNION_R34_SE REUNION_R34_SW REUNION_R34_NW REUNION_R50_NE REUNION_R50_SE REUNION_R50_SW REUNION_R50_NW REUNION_R64_NE REUNION_R64_SE REUNION_R64_SW REUNION_R64_NW BOM_LAT BOM_LON BOM_TYPE BOM_WIND BOM_PRES BOM_TNUM BOM_CI BOM_RMW BOM_R34_NE BOM_R34_SE BOM_R34_SW BOM_R34_NW BOM_R50_NE BOM_R50_SE BOM_R50_SW BOM_R50_NW BOM_R64_NE BOM_R64_SE BOM_R64_SW BOM_R64_NW BOM_ROCI BOM_POCI BOM_EYE BOM_POS_METHOD BOM_PRES_METHOD NADI_LAT NADI_LON NADI_CAT NADI_WIND NADI_PRES WELLINGTON_LAT WELLINGTON_LON WELLINGTON_WIND WELLINGTON_PRES DS824_LAT DS824_LON DS824_STAGE DS824_WIND DS824_PRES TD9636_LAT TD9636_LON TD9636_STAGE TD9636_WIND TD9636_PRES TD9635_LAT TD9635_LON TD9635_WIND TD9635_PRES TD9635_ROCI NEUMANN_LAT NEUMANN_LON NEUMANN_CLASS NEUMANN_WIND NEUMANN_PRES MLC_LAT MLC_LON MLC_CLASS MLC_WIND MLC_PRES USA_GUST BOM_GUST BOM_GUST_PER REUNION_GUST REUNION_GUST_PER USA_SEAHGT USA_SEARAD_NE USA_SEARAD_SE USA_SEARAD_SW USA_SEARAD_NW STORM_SPEED STORM_DIR
1891254N19119 1891 30 WP MM NOT_NAMED 1891-09-10 16:00:00 NR 18.7000 118.700 main 201 201 __________O___ -1 18.7000 118.700 7 25 280
1891254N19119 1891 30 WP MM NOT_NAMED 1891-09-10 18:00:00 NR 18.8488 117.836 main 295 298 __________P___ -1 18.8488 117.836 7 24 280
1891254N19119 1891 30 WP MM NOT_NAMED 1891-09-10 21:00:00 NR 19.0557 116.581 main 411 365 __________P___ -1 19.0557 116.581 7 23 280
1891254N19119 1891 30 WP MM NOT_NAMED 1891-09-11 00:00:00 NR 19.2318 115.436 main 365 320 __________P___ -1 19.2318 115.436 7 20 279
1891254N19119 1891 30 WP MM NOT_NAMED 1891-09-11 03:00:00 NR 19.3662 114.470 main 320 306 __________P___ -1 19.3662 114.470 7 18 278
1891254N19119 1891 30 WP MM NOT_NAMED 1891-09-11 04:00:00 NR 19.4000 114.200 main 306 278 __________O___ -1 19.4000 114.200 3 14 277
1891254N19119 1891 30 WP MM NOT_NAMED 1891-09-11 06:00:00 NR 19.4503 113.745 main 278 230 __________P___ -1 19.4503 113.745 3 11 276
1891254N19119 1891 30 WP MM NOT_NAMED 1891-09-11 09:00:00 NR 19.4909 113.234 main 230 199 __________P___ -1 19.4909 113.234 3 8 274
1891254N19119 1891 30 WP MM NOT_NAMED 1891-09-11 12:00:00 NR 19.5032 112.853 main 199 157 __________P___ -1 19.5032 112.853 3 7 271
1891254N19119 1891 30 WP MM NOT_NAMED 1891-09-11 15:00:00 NR 19.5014 112.517 main 157 147 __________P___ -1 19.5014 112.517 3 6 270
1891254N19119 1891 30 WP MM NOT_NAMED 1891-09-11 16:00:00 NR 19.5000 112.400 main 147 115 __________O___ -1 19.5000 112.400 4 8 272
1891254N19119 1891 30 WP MM NOT_NAMED 1891-09-11 18:00:00 NR 19.5133 112.103 main 115 74 __________P___ -1 19.5133 112.103 4 8 272
1891254N19119 1891 30 WP MM NOT_NAMED 1891-09-11 21:00:00 NR 19.5273 111.657 main 74 23 __________P___ -1 19.5273 111.657 4 8 271
1891254N19119 1891 30 WP MM NOT_NAMED 1891-09-12 00:00:00 NR 19.5286 111.208 main 23 0 __________P___ -1 19.5286 111.208 4 9 269
1891254N19119 1891 30 WP MM NOT_NAMED 1891-09-12 03:00:00 NR 19.5111 110.753 main 0 0 __________P___ -1 19.5111 110.753 4 9 267
1891254N19119 1891 30 WP MM NOT_NAMED 1891-09-12 04:00:00 NR 19.5000 110.600 main 0 0 __________O___ -1 19.5000 110.600 4 9 265
1891254N19119 1891 30 WP MM NOT_NAMED 1891-09-12 06:00:00 NR 19.4722 110.289 main 0 0 __________P___ -1 19.4722 110.289 4 9 263
1891254N19119 1891 30 WP MM NOT_NAMED 1891-09-12 09:00:00 NR 19.4118 109.816 main 0 0 __________P___ -1 19.4118 109.816 4 9 261
1891254N19119 1891 30 WP MM NOT_NAMED 1891-09-12 12:00:00 NR 19.3317 109.339 main 0 0 __________P___ -1 19.3317 109.339 4 9 259
1891254N19119 1891 30 WP MM NOT_NAMED 1891-09-12 15:00:00 NR 19.2353 108.860 main 0 0 __________P___ -1 19.2353 108.860 4 9 258
1891254N19119 1891 30 WP MM NOT_NAMED 1891-09-12 16:00:00 NR 19.2000 108.700 main 0 0 __________O___ -1 19.2000 108.700 4 9 256
1891254N19119 1891 30 WP MM NOT_NAMED 1891-09-12 18:00:00 NR 19.1255 108.381 main 30 30 __________P___ -1 19.1255 108.381 4 9 255
1891254N19119 1891 30 WP MM NOT_NAMED 1891-09-12 21:00:00 NR 19.0053 107.905 main 80 80 __________P___ -1 19.0053 107.905 4 9 255
1891254N19119 1891 30 WP MM NOT_NAMED 1891-09-13 00:00:00 NR 18.8775 107.431 main 133 92 __________P___ -1 18.8775 107.431 4 9 254
1891254N19119 1891 30 WP MM NOT_NAMED 1891-09-13 03:00:00 NR 18.7448 106.958 main 92 76 __________P___ -1 18.7448 106.958 4 9 253
1891254N19119 1891 30 WP MM NOT_NAMED 1891-09-13 04:00:00 NR 18.7000 106.800 main 76 __________O___ -1 18.7000 106.800 7 9 253

デジタル台風データ・検索

IBTrACS Databaseについて

本データベースは、米国NOAAが公開する1842年以降の世界の熱帯低気圧のベストトラックデータアーカイブInternational Best Track Archive for Climate Stewardship (IBTrACS)を、ウェブで閲覧しやすい形式に変換したものです。

最終更新日:2021-11-26